sensor_id;sensor_type;location;lat;lon;timestamp;temperature;humidity
9951;DHT22;24074;49.254;6.702;2023-06-26T00:01:57;17.20;99.90
9951;DHT22;24074;49.254;6.702;2023-06-26T00:04:23;17.10;99.90
9951;DHT22;24074;49.254;6.702;2023-06-26T00:06:48;17.30;99.90
9951;DHT22;24074;49.254;6.702;2023-06-26T00:09:14;17.20;99.90
9951;DHT22;24074;49.254;6.702;2023-06-26T00:11:39;17.10;99.90
9951;DHT22;24074;49.254;6.702;2023-06-26T00:14:05;16.90;99.90
9951;DHT22;24074;49.254;6.702;2023-06-26T00:16:31;16.80;99.90
9951;DHT22;24074;49.254;6.702;2023-06-26T00:18:57;16.80;99.90
9951;DHT22;24074;49.254;6.702;2023-06-26T00:21:24;16.70;99.90
9951;DHT22;24074;49.254;6.702;2023-06-26T00:23:50;16.80;99.90
9951;DHT22;24074;49.254;6.702;2023-06-26T00:26:16;16.90;99.90
9951;DHT22;24074;49.254;6.702;2023-06-26T00:28:42;17.10;99.90
9951;DHT22;24074;49.254;6.702;2023-06-26T00:31:07;17.00;99.90
9951;DHT22;24074;49.254;6.702;2023-06-26T00:33:33;17.00;99.90
9951;DHT22;24074;49.254;6.702;2023-06-26T00:35:59;16.90;99.90
9951;DHT22;24074;49.254;6.702;2023-06-26T00:38:24;17.00;99.90
9951;DHT22;24074;49.254;6.702;2023-06-26T00:40:50;17.00;99.90
9951;DHT22;24074;49.254;6.702;2023-06-26T00:43:15;16.90;99.90
9951;DHT22;24074;49.254;6.702;2023-06-26T00:45:43;16.90;99.90
9951;DHT22;24074;49.254;6.702;2023-06-26T00:48:10;16.90;99.90
9951;DHT22;24074;49.254;6.702;2023-06-26T00:50:37;16.80;99.90
9951;DHT22;24074;49.254;6.702;2023-06-26T00:53:03;16.80;99.90
9951;DHT22;24074;49.254;6.702;2023-06-26T00:55:31;16.70;99.90
9951;DHT22;24074;49.254;6.702;2023-06-26T00:57:57;16.60;99.90
9951;DHT22;24074;49.254;6.702;2023-06-26T01:00:23;16.60;99.90
9951;DHT22;24074;49.254;6.702;2023-06-26T01:02:48;16.60;99.90
9951;DHT22;24074;49.254;6.702;2023-06-26T01:05:14;16.50;99.90
9951;DHT22;24074;49.254;6.702;2023-06-26T01:07:49;16.40;99.90
9951;DHT22;24074;49.254;6.702;2023-06-26T01:10:15;16.30;99.90
9951;DHT22;24074;49.254;6.702;2023-06-26T01:12:41;16.20;99.90
9951;DHT22;24074;49.254;6.702;2023-06-26T01:15:07;16.10;99.90
9951;DHT22;24074;49.254;6.702;2023-06-26T01:17:37;16.10;99.90
9951;DHT22;24074;49.254;6.702;2023-06-26T01:20:05;16.20;99.90
9951;DHT22;24074;49.254;6.702;2023-06-26T01:28:16;15.90;99.90
9951;DHT22;24074;49.254;6.702;2023-06-26T01:30:44;15.90;99.90
9951;DHT22;24074;49.254;6.702;2023-06-26T01:33:11;16.00;99.90
9951;DHT22;24074;49.254;6.702;2023-06-26T01:35:38;16.00;99.90
9951;DHT22;24074;49.254;6.702;2023-06-26T01:38:17;16.00;99.90
9951;DHT22;24074;49.254;6.702;2023-06-26T01:40:44;15.90;99.90
9951;DHT22;24074;49.254;6.702;2023-06-26T01:43:26;15.70;99.90
9951;DHT22;24074;49.254;6.702;2023-06-26T01:45:58;15.60;99.90
9951;DHT22;24074;49.254;6.702;2023-06-26T01:48:30;15.60;99.90
9951;DHT22;24074;49.254;6.702;2023-06-26T01:50:59;15.70;99.90
9951;DHT22;24074;49.254;6.702;2023-06-26T01:53:25;15.80;99.90
9951;DHT22;24074;49.254;6.702;2023-06-26T01:56:06;15.70;99.90
9951;DHT22;24074;49.254;6.702;2023-06-26T01:58:33;15.70;99.90
9951;DHT22;24074;49.254;6.702;2023-06-26T02:01:00;15.70;99.90
9951;DHT22;24074;49.254;6.702;2023-06-26T02:03:26;15.90;99.90
9951;DHT22;24074;49.254;6.702;2023-06-26T02:05:55;15.90;99.90
9951;DHT22;24074;49.254;6.702;2023-06-26T02:08:21;15.90;99.90
9951;DHT22;24074;49.254;6.702;2023-06-26T02:10:48;15.90;99.90
9951;DHT22;24074;49.254;6.702;2023-06-26T02:13:13;15.90;99.90
9951;DHT22;24074;49.254;6.702;2023-06-26T02:15:39;15.80;99.90
9951;DHT22;24074;49.254;6.702;2023-06-26T02:18:05;15.60;99.90
9951;DHT22;24074;49.254;6.702;2023-06-26T02:20:30;15.50;99.90
9951;DHT22;24074;49.254;6.702;2023-06-26T02:22:56;15.60;99.90
9951;DHT22;24074;49.254;6.702;2023-06-26T02:25:22;15.50;99.90
9951;DHT22;24074;49.254;6.702;2023-06-26T02:27:47;15.50;99.90
9951;DHT22;24074;49.254;6.702;2023-06-26T02:30:13;15.40;99.90
9951;DHT22;24074;49.254;6.702;2023-06-26T02:32:38;15.50;99.90
9951;DHT22;24074;49.254;6.702;2023-06-26T02:35:04;15.50;99.90
9951;DHT22;24074;49.254;6.702;2023-06-26T02:37:30;15.40;99.90
9951;DHT22;24074;49.254;6.702;2023-06-26T02:39:55;15.40;99.90
9951;DHT22;24074;49.254;6.702;2023-06-26T02:42:21;15.40;99.90
9951;DHT22;24074;49.254;6.702;2023-06-26T02:44:46;15.40;99.90
9951;DHT22;24074;49.254;6.702;2023-06-26T02:47:12;15.40;99.90
9951;DHT22;24074;49.254;6.702;2023-06-26T02:49:37;15.40;99.90
9951;DHT22;24074;49.254;6.702;2023-06-26T02:52:03;15.50;99.90
9951;DHT22;24074;49.254;6.702;2023-06-26T02:54:29;15.50;99.90
9951;DHT22;24074;49.254;6.702;2023-06-26T02:56:54;15.60;99.90
9951;DHT22;24074;49.254;6.702;2023-06-26T02:59:20;15.60;99.90
9951;DHT22;24074;49.254;6.702;2023-06-26T03:01:45;15.60;99.90
9951;DHT22;24074;49.254;6.702;2023-06-26T03:04:11;15.60;99.90
9951;DHT22;24074;49.254;6.702;2023-06-26T03:06:36;15.50;99.90
9951;DHT22;24074;49.254;6.702;2023-06-26T03:09:02;15.50;99.90
9951;DHT22;24074;49.254;6.702;2023-06-26T03:11:28;15.40;99.90
9951;DHT22;24074;49.254;6.702;2023-06-26T03:13:54;15.40;99.90
9951;DHT22;24074;49.254;6.702;2023-06-26T03:16:19;15.30;99.90
9951;DHT22;24074;49.254;6.702;2023-06-26T03:18:45;15.20;99.90
9951;DHT22;24074;49.254;6.702;2023-06-26T03:21:10;15.20;99.90
9951;DHT22;24074;49.254;6.702;2023-06-26T03:23:36;15.20;99.90
9951;DHT22;24074;49.254;6.702;2023-06-26T03:26:02;15.10;99.90
9951;DHT22;24074;49.254;6.702;2023-06-26T03:28:27;15.20;99.90
9951;DHT22;24074;49.254;6.702;2023-06-26T03:30:53;15.00;99.90
9951;DHT22;24074;49.254;6.702;2023-06-26T03:33:18;14.90;99.90
9951;DHT22;24074;49.254;6.702;2023-06-26T03:35:44;14.80;99.90
9951;DHT22;24074;49.254;6.702;2023-06-26T03:38:10;14.90;99.90
9951;DHT22;24074;49.254;6.702;2023-06-26T03:40:35;14.90;99.90
9951;DHT22;24074;49.254;6.702;2023-06-26T03:43:01;15.00;99.90
9951;DHT22;24074;49.254;6.702;2023-06-26T03:45:26;14.90;99.90
9951;DHT22;24074;49.254;6.702;2023-06-26T03:47:52;15.10;99.90
9951;DHT22;24074;49.254;6.702;2023-06-26T03:50:18;15.00;99.90
9951;DHT22;24074;49.254;6.702;2023-06-26T03:52:44;15.00;99.90
9951;DHT22;24074;49.254;6.702;2023-06-26T03:55:10;15.00;99.90
9951;DHT22;24074;49.254;6.702;2023-06-26T03:57:36;15.10;99.90
9951;DHT22;24074;49.254;6.702;2023-06-26T04:00:02;15.10;99.90
9951;DHT22;24074;49.254;6.702;2023-06-26T04:02:33;15.00;99.90
9951;DHT22;24074;49.254;6.702;2023-06-26T04:04:58;15.00;99.90
9951;DHT22;24074;49.254;6.702;2023-06-26T04:07:25;15.10;99.90
9951;DHT22;24074;49.254;6.702;2023-06-26T04:09:51;15.20;99.90
9951;DHT22;24074;49.254;6.702;2023-06-26T04:12:17;15.20;99.90
9951;DHT22;24074;49.254;6.702;2023-06-26T04:14:42;15.30;99.90
9951;DHT22;24074;49.254;6.702;2023-06-26T04:17:08;15.30;99.90
9951;DHT22;24074;49.254;6.702;2023-06-26T04:19:33;15.20;99.90
9951;DHT22;24074;49.254;6.702;2023-06-26T04:22:01;15.30;99.90
9951;DHT22;24074;49.254;6.702;2023-06-26T04:24:26;15.40;99.90
9951;DHT22;24074;49.254;6.702;2023-06-26T04:26:52;15.50;99.90
9951;DHT22;24074;49.254;6.702;2023-06-26T04:29:18;15.50;99.90
9951;DHT22;24074;49.254;6.702;2023-06-26T04:31:43;15.60;99.90
9951;DHT22;24074;49.254;6.702;2023-06-26T04:34:12;15.80;99.90
9951;DHT22;24074;49.254;6.702;2023-06-26T04:36:38;16.00;99.90
9951;DHT22;24074;49.254;6.702;2023-06-26T04:39:05;16.10;99.90
9951;DHT22;24074;49.254;6.702;2023-06-26T04:41:30;16.20;99.90
9951;DHT22;24074;49.254;6.702;2023-06-26T04:43:56;16.30;99.90
9951;DHT22;24074;49.254;6.702;2023-06-26T04:46:21;16.30;99.90
9951;DHT22;24074;49.254;6.702;2023-06-26T04:48:47;16.30;99.90
9951;DHT22;24074;49.254;6.702;2023-06-26T04:51:12;16.40;99.90
9951;DHT22;24074;49.254;6.702;2023-06-26T04:53:38;16.60;99.90
9951;DHT22;24074;49.254;6.702;2023-06-26T04:56:03;16.70;99.90
9951;DHT22;24074;49.254;6.702;2023-06-26T04:58:30;16.90;99.90
9951;DHT22;24074;49.254;6.702;2023-06-26T05:00:55;17.20;99.90
9951;DHT22;24074;49.254;6.702;2023-06-26T05:03:21;17.50;99.90
9951;DHT22;24074;49.254;6.702;2023-06-26T05:05:47;17.70;99.90
9951;DHT22;24074;49.254;6.702;2023-06-26T05:08:24;17.90;99.90
9951;DHT22;24074;49.254;6.702;2023-06-26T05:10:51;18.00;99.90
9951;DHT22;24074;49.254;6.702;2023-06-26T05:13:19;18.00;99.90
9951;DHT22;24074;49.254;6.702;2023-06-26T05:15:45;18.00;99.90
9951;DHT22;24074;49.254;6.702;2023-06-26T05:18:11;18.00;99.90
9951;DHT22;24074;49.254;6.702;2023-06-26T05:20:37;18.20;99.90
9951;DHT22;24074;49.254;6.702;2023-06-26T05:23:03;18.30;99.90
9951;DHT22;24074;49.254;6.702;2023-06-26T05:25:30;18.60;99.90
9951;DHT22;24074;49.254;6.702;2023-06-26T05:27:56;18.90;99.90
9951;DHT22;24074;49.254;6.702;2023-06-26T05:30:23;19.00;99.90
9951;DHT22;24074;49.254;6.702;2023-06-26T05:32:51;19.10;99.90
9951;DHT22;24074;49.254;6.702;2023-06-26T05:35:19;19.40;99.90
9951;DHT22;24074;49.254;6.702;2023-06-26T05:37:45;19.90;99.90
9951;DHT22;24074;49.254;6.702;2023-06-26T05:40:13;21.10;99.90
9951;DHT22;24074;49.254;6.702;2023-06-26T05:42:38;21.60;99.90
9951;DHT22;24074;49.254;6.702;2023-06-26T05:45:04;22.60;99.90
9951;DHT22;24074;49.254;6.702;2023-06-26T05:47:30;23.30;99.90
9951;DHT22;24074;49.254;6.702;2023-06-26T05:49:56;24.20;99.90
9951;DHT22;24074;49.254;6.702;2023-06-26T05:52:22;25.60;99.90
9951;DHT22;24074;49.254;6.702;2023-06-26T05:54:47;26.10;99.90
9951;DHT22;24074;49.254;6.702;2023-06-26T05:57:13;26.10;99.90
9951;DHT22;24074;49.254;6.702;2023-06-26T05:59:40;26.10;99.90
9951;DHT22;24074;49.254;6.702;2023-06-26T06:02:08;26.60;99.90
9951;DHT22;24074;49.254;6.702;2023-06-26T06:04:33;26.60;99.90
9951;DHT22;24074;49.254;6.702;2023-06-26T06:07:00;27.10;99.90
9951;DHT22;24074;49.254;6.702;2023-06-26T06:09:26;27.00;99.90
9951;DHT22;24074;49.254;6.702;2023-06-26T06:11:51;27.20;99.90
9951;DHT22;24074;49.254;6.702;2023-06-26T06:14:17;27.50;99.90
9951;DHT22;24074;49.254;6.702;2023-06-26T06:16:42;27.40;99.90
9951;DHT22;24074;49.254;6.702;2023-06-26T06:19:09;28.00;99.90
9951;DHT22;24074;49.254;6.702;2023-06-26T06:21:36;27.90;99.90
9951;DHT22;24074;49.254;6.702;2023-06-26T06:24:02;27.10;99.90
9951;DHT22;24074;49.254;6.702;2023-06-26T06:26:28;26.90;99.90
9951;DHT22;24074;49.254;6.702;2023-06-26T06:28:54;26.20;99.90
9951;DHT22;24074;49.254;6.702;2023-06-26T06:31:19;25.90;99.90
9951;DHT22;24074;49.254;6.702;2023-06-26T06:33:45;27.00;99.90
9951;DHT22;24074;49.254;6.702;2023-06-26T06:36:11;27.50;99.90
9951;DHT22;24074;49.254;6.702;2023-06-26T06:38:43;27.30;99.90
9951;DHT22;24074;49.254;6.702;2023-06-26T06:41:09;26.60;99.90
9951;DHT22;24074;49.254;6.702;2023-06-26T06:43:34;26.60;99.90
9951;DHT22;24074;49.254;6.702;2023-06-26T06:46:01;26.80;99.90
9951;DHT22;24074;49.254;6.702;2023-06-26T06:48:27;27.00;99.90
9951;DHT22;24074;49.254;6.702;2023-06-26T06:50:52;27.10;99.90
9951;DHT22;24074;49.254;6.702;2023-06-26T06:53:18;26.90;99.90
9951;DHT22;24074;49.254;6.702;2023-06-26T06:55:48;26.80;99.90
9951;DHT22;24074;49.254;6.702;2023-06-26T06:58:17;26.20;99.90
9951;DHT22;24074;49.254;6.702;2023-06-26T07:00:44;26.30;99.90
9951;DHT22;24074;49.254;6.702;2023-06-26T07:03:10;26.70;99.90
9951;DHT22;24074;49.254;6.702;2023-06-26T07:05:36;26.80;99.90
9951;DHT22;24074;49.254;6.702;2023-06-26T07:08:02;26.30;99.90
9951;DHT22;24074;49.254;6.702;2023-06-26T07:10:28;25.50;99.90
9951;DHT22;24074;49.254;6.702;2023-06-26T07:12:54;25.60;99.90
9951;DHT22;24074;49.254;6.702;2023-06-26T07:15:20;25.80;99.90
9951;DHT22;24074;49.254;6.702;2023-06-26T07:17:45;27.00;97.90
9951;DHT22;24074;49.254;6.702;2023-06-26T07:20:11;28.00;95.10
9951;DHT22;24074;49.254;6.702;2023-06-26T07:22:41;28.50;91.00
9951;DHT22;24074;49.254;6.702;2023-06-26T07:25:07;29.00;89.80
9951;DHT22;24074;49.254;6.702;2023-06-26T07:27:36;28.60;87.20
9951;DHT22;24074;49.254;6.702;2023-06-26T07:30:02;28.80;84.50
9951;DHT22;24074;49.254;6.702;2023-06-26T07:32:28;28.90;84.40
9951;DHT22;24074;49.254;6.702;2023-06-26T07:34:53;28.70;83.50
9951;DHT22;24074;49.254;6.702;2023-06-26T07:37:19;29.10;83.80
9951;DHT22;24074;49.254;6.702;2023-06-26T07:39:45;30.30;79.60
9951;DHT22;24074;49.254;6.702;2023-06-26T07:42:10;31.30;75.50
9951;DHT22;24074;49.254;6.702;2023-06-26T07:44:36;32.30;74.40
9951;DHT22;24074;49.254;6.702;2023-06-26T07:47:02;32.70;74.00
9951;DHT22;24074;49.254;6.702;2023-06-26T07:49:27;33.10;73.10
9951;DHT22;24074;49.254;6.702;2023-06-26T07:51:53;33.00;73.40
9951;DHT22;24074;49.254;6.702;2023-06-26T07:54:18;33.00;72.10
9951;DHT22;24074;49.254;6.702;2023-06-26T07:57:01;33.10;71.00
9951;DHT22;24074;49.254;6.702;2023-06-26T07:59:29;32.90;71.50
9951;DHT22;24074;49.254;6.702;2023-06-26T08:01:56;33.80;68.40
9951;DHT22;24074;49.254;6.702;2023-06-26T08:04:24;33.70;67.90
9951;DHT22;24074;49.254;6.702;2023-06-26T08:06:51;33.60;66.10
9951;DHT22;24074;49.254;6.702;2023-06-26T08:09:18;33.40;66.10
9951;DHT22;24074;49.254;6.702;2023-06-26T08:11:44;34.40;64.20
9951;DHT22;24074;49.254;6.702;2023-06-26T08:14:10;34.00;63.80
9951;DHT22;24074;49.254;6.702;2023-06-26T08:16:38;35.70;63.10
9951;DHT22;24074;49.254;6.702;2023-06-26T08:19:04;36.00;60.70
9951;DHT22;24074;49.254;6.702;2023-06-26T08:21:29;35.10;60.80
9951;DHT22;24074;49.254;6.702;2023-06-26T08:23:55;34.80;60.60
9951;DHT22;24074;49.254;6.702;2023-06-26T08:26:20;33.50;62.50
9951;DHT22;24074;49.254;6.702;2023-06-26T08:28:46;34.30;62.40
9951;DHT22;24074;49.254;6.702;2023-06-26T08:31:12;34.40;60.10
9951;DHT22;24074;49.254;6.702;2023-06-26T08:33:37;34.50;60.00
9951;DHT22;24074;49.254;6.702;2023-06-26T08:36:03;34.50;59.60
9951;DHT22;24074;49.254;6.702;2023-06-26T08:38:28;35.20;58.40
9951;DHT22;24074;49.254;6.702;2023-06-26T08:40:54;35.90;57.40
9951;DHT22;24074;49.254;6.702;2023-06-26T08:43:19;36.20;55.40
9951;DHT22;24074;49.254;6.702;2023-06-26T08:45:47;36.40;54.80
9951;DHT22;24074;49.254;6.702;2023-06-26T08:48:16;37.20;53.80
9951;DHT22;24074;49.254;6.702;2023-06-26T08:50:43;37.10;52.60
9951;DHT22;24074;49.254;6.702;2023-06-26T08:53:38;36.70;52.70
9951;DHT22;24074;49.254;6.702;2023-06-26T08:56:06;36.90;52.60
9951;DHT22;24074;49.254;6.702;2023-06-26T08:58:32;37.20;52.70
9951;DHT22;24074;49.254;6.702;2023-06-26T09:00:59;36.90;53.00
9951;DHT22;24074;49.254;6.702;2023-06-26T09:03:25;37.20;52.40
9951;DHT22;24074;49.254;6.702;2023-06-26T09:05:51;36.40;51.70
9951;DHT22;24074;49.254;6.702;2023-06-26T09:08:17;35.60;51.50
9951;DHT22;24074;49.254;6.702;2023-06-26T09:10:42;34.90;52.50
9951;DHT22;24074;49.254;6.702;2023-06-26T09:13:08;35.70;52.50
9951;DHT22;24074;49.254;6.702;2023-06-26T09:15:43;35.90;51.90
9951;DHT22;24074;49.254;6.702;2023-06-26T09:18:09;35.90;50.80
9951;DHT22;24074;49.254;6.702;2023-06-26T09:20:35;35.80;51.30
9951;DHT22;24074;49.254;6.702;2023-06-26T09:23:03;36.60;51.50
9951;DHT22;24074;49.254;6.702;2023-06-26T09:25:29;37.00;50.40
9951;DHT22;24074;49.254;6.702;2023-06-26T09:27:55;37.40;50.00
9951;DHT22;24074;49.254;6.702;2023-06-26T09:30:21;36.20;51.70
9951;DHT22;24074;49.254;6.702;2023-06-26T09:32:47;36.00;53.40
9951;DHT22;24074;49.254;6.702;2023-06-26T09:35:13;35.80;53.90
9951;DHT22;24074;49.254;6.702;2023-06-26T09:37:39;36.60;53.30
9951;DHT22;24074;49.254;6.702;2023-06-26T09:40:06;36.00;53.40
9951;DHT22;24074;49.254;6.702;2023-06-26T09:42:32;35.90;53.40
9951;DHT22;24074;49.254;6.702;2023-06-26T09:44:58;35.20;54.70
9951;DHT22;24074;49.254;6.702;2023-06-26T09:47:23;35.20;55.70
9951;DHT22;24074;49.254;6.702;2023-06-26T09:49:49;35.40;56.00
9951;DHT22;24074;49.254;6.702;2023-06-26T09:52:16;35.60;55.80
9951;DHT22;24074;49.254;6.702;2023-06-26T09:54:42;35.10;54.60
9951;DHT22;24074;49.254;6.702;2023-06-26T09:57:16;34.60;51.80
9951;DHT22;24074;49.254;6.702;2023-06-26T09:59:43;34.90;51.90
9951;DHT22;24074;49.254;6.702;2023-06-26T10:02:12;35.40;51.70
9951;DHT22;24074;49.254;6.702;2023-06-26T10:04:38;36.20;51.70
9951;DHT22;24074;49.254;6.702;2023-06-26T10:07:10;36.00;51.20
9951;DHT22;24074;49.254;6.702;2023-06-26T10:09:42;36.60;51.80
9951;DHT22;24074;49.254;6.702;2023-06-26T10:12:28;36.70;49.30
9951;DHT22;24074;49.254;6.702;2023-06-26T10:14:56;36.40;50.20
9951;DHT22;24074;49.254;6.702;2023-06-26T10:17:25;35.50;51.40
9951;DHT22;24074;49.254;6.702;2023-06-26T10:19:51;35.80;47.90
9951;DHT22;24074;49.254;6.702;2023-06-26T10:22:20;35.40;48.90
9951;DHT22;24074;49.254;6.702;2023-06-26T10:24:48;35.10;50.00
9951;DHT22;24074;49.254;6.702;2023-06-26T10:27:17;35.80;50.10
9951;DHT22;24074;49.254;6.702;2023-06-26T10:30:02;36.30;49.80
9951;DHT22;24074;49.254;6.702;2023-06-26T10:32:29;34.30;52.80
9951;DHT22;24074;49.254;6.702;2023-06-26T10:34:55;35.50;51.70
9951;DHT22;24074;49.254;6.702;2023-06-26T10:37:40;36.00;50.00
9951;DHT22;24074;49.254;6.702;2023-06-26T10:40:07;35.80;50.10
9951;DHT22;24074;49.254;6.702;2023-06-26T10:42:37;35.20;51.10
9951;DHT22;24074;49.254;6.702;2023-06-26T10:45:16;35.40;49.90
9951;DHT22;24074;49.254;6.702;2023-06-26T10:47:45;35.30;48.40
9951;DHT22;24074;49.254;6.702;2023-06-26T10:50:18;35.20;47.30
9951;DHT22;24074;49.254;6.702;2023-06-26T10:52:44;34.50;48.90
9951;DHT22;24074;49.254;6.702;2023-06-26T10:55:10;35.00;49.00
9951;DHT22;24074;49.254;6.702;2023-06-26T10:57:38;35.40;49.70
9951;DHT22;24074;49.254;6.702;2023-06-26T11:00:24;36.20;49.20
9951;DHT22;24074;49.254;6.702;2023-06-26T11:02:50;36.70;48.20
9951;DHT22;24074;49.254;6.702;2023-06-26T11:05:27;36.40;46.70
9951;DHT22;24074;49.254;6.702;2023-06-26T11:08:06;35.20;47.30
9951;DHT22;24074;49.254;6.702;2023-06-26T11:10:51;34.20;46.80
9951;DHT22;24074;49.254;6.702;2023-06-26T11:13:19;33.60;48.40
9951;DHT22;24074;49.254;6.702;2023-06-26T11:15:45;33.40;48.80
9951;DHT22;24074;49.254;6.702;2023-06-26T11:18:12;32.90;50.30
9951;DHT22;24074;49.254;6.702;2023-06-26T11:20:38;33.00;51.10
9951;DHT22;24074;49.254;6.702;2023-06-26T11:23:07;32.70;50.50
9951;DHT22;24074;49.254;6.702;2023-06-26T11:25:35;32.70;50.90
9951;DHT22;24074;49.254;6.702;2023-06-26T11:28:02;32.20;51.80
9951;DHT22;24074;49.254;6.702;2023-06-26T11:30:28;31.60;52.10
9951;DHT22;24074;49.254;6.702;2023-06-26T11:33:02;30.40;54.20
9951;DHT22;24074;49.254;6.702;2023-06-26T11:35:28;30.10;54.20
9951;DHT22;24074;49.254;6.702;2023-06-26T11:37:58;29.40;55.70
9951;DHT22;24074;49.254;6.702;2023-06-26T11:40:26;29.10;55.90
9951;DHT22;24074;49.254;6.702;2023-06-26T11:42:58;29.00;56.80
9951;DHT22;24074;49.254;6.702;2023-06-26T11:45:24;29.10;55.90
9951;DHT22;24074;49.254;6.702;2023-06-26T11:47:50;29.90;55.70
9951;DHT22;24074;49.254;6.702;2023-06-26T11:50:16;29.50;52.10
9951;DHT22;24074;49.254;6.702;2023-06-26T11:52:43;29.20;53.00
9951;DHT22;24074;49.254;6.702;2023-06-26T11:55:09;29.10;53.90
9951;DHT22;24074;49.254;6.702;2023-06-26T11:57:36;29.30;53.80
9951;DHT22;24074;49.254;6.702;2023-06-26T12:00:12;29.50;52.40
9951;DHT22;24074;49.254;6.702;2023-06-26T12:02:37;29.60;51.40
9951;DHT22;24074;49.254;6.702;2023-06-26T12:05:07;29.10;51.00
9951;DHT22;24074;49.254;6.702;2023-06-26T12:07:33;29.10;51.10
9951;DHT22;24074;49.254;6.702;2023-06-26T12:10:00;29.00;51.30
9951;DHT22;24074;49.254;6.702;2023-06-26T12:12:26;29.20;51.60
9951;DHT22;24074;49.254;6.702;2023-06-26T12:14:52;29.50;51.80
9951;DHT22;24074;49.254;6.702;2023-06-26T12:17:22;29.70;52.70
9951;DHT22;24074;49.254;6.702;2023-06-26T12:19:48;29.20;52.10
9951;DHT22;24074;49.254;6.702;2023-06-26T12:22:15;28.70;54.00
9951;DHT22;24074;49.254;6.702;2023-06-26T12:24:41;28.60;54.80
9951;DHT22;24074;49.254;6.702;2023-06-26T12:27:16;28.60;53.80
9951;DHT22;24074;49.254;6.702;2023-06-26T12:29:50;28.60;53.10
9951;DHT22;24074;49.254;6.702;2023-06-26T12:32:16;29.00;52.70
9951;DHT22;24074;49.254;6.702;2023-06-26T12:34:41;28.90;53.50
9951;DHT22;24074;49.254;6.702;2023-06-26T12:37:12;29.00;52.50
9951;DHT22;24074;49.254;6.702;2023-06-26T12:39:55;28.80;52.10
9951;DHT22;24074;49.254;6.702;2023-06-26T12:42:24;28.90;52.70
9951;DHT22;24074;49.254;6.702;2023-06-26T12:44:50;29.00;51.40
9951;DHT22;24074;49.254;6.702;2023-06-26T12:47:17;29.30;50.00
9951;DHT22;24074;49.254;6.702;2023-06-26T12:49:50;29.20;50.70
9951;DHT22;24074;49.254;6.702;2023-06-26T12:52:16;28.90;51.40
9951;DHT22;24074;49.254;6.702;2023-06-26T12:54:44;28.40;50.20
9951;DHT22;24074;49.254;6.702;2023-06-26T12:57:10;28.30;49.90
9951;DHT22;24074;49.254;6.702;2023-06-26T12:59:37;28.60;50.30
9951;DHT22;24074;49.254;6.702;2023-06-26T13:02:03;28.50;51.00
9951;DHT22;24074;49.254;6.702;2023-06-26T13:04:29;28.30;52.10
9951;DHT22;24074;49.254;6.702;2023-06-26T13:06:55;28.40;52.80
9951;DHT22;24074;49.254;6.702;2023-06-26T13:09:21;28.20;53.90
9951;DHT22;24074;49.254;6.702;2023-06-26T13:11:47;28.00;54.30
9951;DHT22;24074;49.254;6.702;2023-06-26T13:14:13;28.00;54.10
9951;DHT22;24074;49.254;6.702;2023-06-26T13:16:39;28.20;54.70
9951;DHT22;24074;49.254;6.702;2023-06-26T13:19:04;28.00;54.80
9951;DHT22;24074;49.254;6.702;2023-06-26T13:21:30;28.20;54.20
9951;DHT22;24074;49.254;6.702;2023-06-26T13:23:56;27.90;54.20
9951;DHT22;24074;49.254;6.702;2023-06-26T13:26:23;28.10;53.30
9951;DHT22;24074;49.254;6.702;2023-06-26T13:28:49;27.90;54.30
9951;DHT22;24074;49.254;6.702;2023-06-26T13:31:15;27.70;55.00
9951;DHT22;24074;49.254;6.702;2023-06-26T13:33:40;27.50;54.80
9951;DHT22;24074;49.254;6.702;2023-06-26T13:36:06;27.90;55.30
9951;DHT22;24074;49.254;6.702;2023-06-26T13:38:35;27.80;55.50
9951;DHT22;24074;49.254;6.702;2023-06-26T13:41:01;28.30;55.80
9951;DHT22;24074;49.254;6.702;2023-06-26T13:43:27;28.50;54.80
9951;DHT22;24074;49.254;6.702;2023-06-26T13:45:53;28.70;54.70
9951;DHT22;24074;49.254;6.702;2023-06-26T13:48:19;28.50;54.40
9951;DHT22;24074;49.254;6.702;2023-06-26T13:50:46;28.60;54.90
9951;DHT22;24074;49.254;6.702;2023-06-26T13:53:12;29.00;54.70
9951;DHT22;24074;49.254;6.702;2023-06-26T13:55:38;28.70;55.40
9951;DHT22;24074;49.254;6.702;2023-06-26T13:58:07;28.90;55.40
9951;DHT22;24074;49.254;6.702;2023-06-26T14:00:33;28.90;55.60
9951;DHT22;24074;49.254;6.702;2023-06-26T14:03:03;28.80;55.60
9951;DHT22;24074;49.254;6.702;2023-06-26T14:05:32;28.70;55.90
9951;DHT22;24074;49.254;6.702;2023-06-26T14:07:58;28.20;56.20
9951;DHT22;24074;49.254;6.702;2023-06-26T14:10:24;27.90;56.00
9951;DHT22;24074;49.254;6.702;2023-06-26T14:12:50;27.90;56.50
9951;DHT22;24074;49.254;6.702;2023-06-26T14:15:16;27.80;56.50
9951;DHT22;24074;49.254;6.702;2023-06-26T14:17:42;27.60;56.70
9951;DHT22;24074;49.254;6.702;2023-06-26T14:20:08;27.50;56.50
9951;DHT22;24074;49.254;6.702;2023-06-26T14:22:38;27.30;57.10
9951;DHT22;24074;49.254;6.702;2023-06-26T14:25:05;27.10;57.10
9951;DHT22;24074;49.254;6.702;2023-06-26T14:27:31;27.30;57.20
9951;DHT22;24074;49.254;6.702;2023-06-26T14:29:56;27.50;58.10
9951;DHT22;24074;49.254;6.702;2023-06-26T14:32:22;27.90;57.20
9951;DHT22;24074;49.254;6.702;2023-06-26T14:34:50;28.00;56.10
9951;DHT22;24074;49.254;6.702;2023-06-26T14:37:16;27.80;56.90
9951;DHT22;24074;49.254;6.702;2023-06-26T14:39:44;27.40;57.80
9951;DHT22;24074;49.254;6.702;2023-06-26T14:42:10;27.80;57.70
9951;DHT22;24074;49.254;6.702;2023-06-26T14:44:35;27.90;57.90
9951;DHT22;24074;49.254;6.702;2023-06-26T14:47:01;27.60;57.50
9951;DHT22;24074;49.254;6.702;2023-06-26T14:49:27;27.20;58.60
9951;DHT22;24074;49.254;6.702;2023-06-26T14:51:52;27.10;58.90
9951;DHT22;24074;49.254;6.702;2023-06-26T14:54:18;27.50;58.90
9951;DHT22;24074;49.254;6.702;2023-06-26T14:56:43;27.60;59.10
9951;DHT22;24074;49.254;6.702;2023-06-26T14:59:11;27.60;58.90
9951;DHT22;24074;49.254;6.702;2023-06-26T15:01:38;27.90;58.40
9951;DHT22;24074;49.254;6.702;2023-06-26T15:04:04;28.20;58.50
9951;DHT22;24074;49.254;6.702;2023-06-26T15:06:29;27.90;58.10
9951;DHT22;24074;49.254;6.702;2023-06-26T15:08:55;28.10;58.40
9951;DHT22;24074;49.254;6.702;2023-06-26T15:11:21;27.80;58.40
9951;DHT22;24074;49.254;6.702;2023-06-26T15:13:46;27.60;58.90
9951;DHT22;24074;49.254;6.702;2023-06-26T15:16:12;27.40;59.10
9951;DHT22;24074;49.254;6.702;2023-06-26T15:18:37;27.40;59.10
9951;DHT22;24074;49.254;6.702;2023-06-26T15:21:03;27.30;59.50
9951;DHT22;24074;49.254;6.702;2023-06-26T15:23:29;27.60;59.90
9951;DHT22;24074;49.254;6.702;2023-06-26T15:25:55;27.30;59.40
9951;DHT22;24074;49.254;6.702;2023-06-26T15:28:20;27.10;60.00
9951;DHT22;24074;49.254;6.702;2023-06-26T15:30:49;27.00;61.30
9951;DHT22;24074;49.254;6.702;2023-06-26T15:33:15;27.10;60.10
9951;DHT22;24074;49.254;6.702;2023-06-26T15:35:40;27.20;59.20
9951;DHT22;24074;49.254;6.702;2023-06-26T15:38:06;26.90;58.20
9951;DHT22;24074;49.254;6.702;2023-06-26T15:40:31;26.80;58.50
9951;DHT22;24074;49.254;6.702;2023-06-26T15:42:57;26.80;58.40
9951;DHT22;24074;49.254;6.702;2023-06-26T15:45:23;26.90;58.60
9951;DHT22;24074;49.254;6.702;2023-06-26T15:47:51;26.90;58.20
9951;DHT22;24074;49.254;6.702;2023-06-26T15:50:17;26.80;58.80